Nearby METAR Reports

 

EHGG - Groningen/Eelde, Netherlands
Distance from station: WSW 29km
Updated: 18/01/2020 06:55
Partly cloudy
Partly cloudy
 Wind from SW
Wind: SW 22 km/h
Temperature: 3°C
Wind Chill: -2°C
Dew Point: 2°C
Humidity: 93%
Barometer: 1018 hPa
Clouds: Partly cloudy
Visibility: 10 km
2020/01/18 05:55 EHGG 180555Z AUTO 22012KT 9999 NSC 03/02 Q1018 NOSIG
ETNT - Wittmundhaven(Ga, Germany
Distance from station: ENE 57km
Updated: 18/01/2020 06:20
Few Clouds
Few Clouds
 Wind from SW
Wind: SW 20 km/h
Temperature: 4°C
Wind Chill: -1°C
Dew Point: 2°C
Humidity: 87%
Barometer: 1017 hPa
Clouds: Few Clouds
Visibility: 10 km
Cloud details: Few Clouds 701 m
2020/01/18 05:20 ETNT 180520Z 22011KT 9999 FEW023 04/02 Q1017 BLU+
 
ETWM - Meppen, Germany
Distance from station: SSE 66km
Updated: 18/01/2020 06:20

 Wind from SW
Wind: SW 19 km/h
Temperature: 4°C
Wind Chill: 0°C
Dew Point: 2°C
Humidity: 87%
Barometer: 1019 hPa
2020/01/18 05:20 ETWM 180520Z AUTO 23010KT //// // ////// 04/02 Q1019 ///
EHMA - Awg-1 Sea, Netherlands
Distance from station: WNW 70km
Updated: 18/01/2020 06:55
Few Clouds
Few Clouds
 Wind from WSW
Wind: WSW 37 km/h
Temperature: 7°C
Wind Chill: 2°C
Dew Point: 4°C
Humidity: 81%
Barometer: 1016 hPa
Clouds: Few Clouds
Visibility: 10 km
Cloud details: Few Clouds 914 m
2020/01/18 05:55 EHMA 180555Z AUTO 25020KT 9999 FEW030 07/04 Q1016
 
EHLW - Leeuwarden Rnlaf, Netherlands
Distance from station: W 79km
Updated: 18/01/2020 06:58
Partly cloudy
Partly cloudy
 Wind from SW
Wind: SW 17 km/h
Temperature: 4°C
Wind Chill: 0°C
Dew Point: 3°C
Humidity: 93%
Barometer: 1017 hPa
Clouds: Partly cloudy
Visibility: 10 km
Cloud details: Partly cloudy 518 m
Partly cloudy 1219 m
2020/01/18 05:58 EHLW 180558Z AUTO 22009KT 9999 SCT017 SCT040 04/03 Q1017 WHT